createdAt,value
2022-09-03T00:00:15.060Z,5.20
2022-09-03T00:03:16.477Z,5.90
2022-09-03T00:06:17.700Z,6.50
2022-09-03T00:09:36.101Z,5.00
2022-09-03T00:12:34.701Z,4.90
2022-09-03T00:15:24.716Z,4.80
2022-09-03T00:18:22.224Z,7.10
2022-09-03T00:21:22.542Z,5.80
2022-09-03T00:24:15.623Z,6.20
2022-09-03T00:27:11.673Z,4.80
2022-09-03T00:30:21.467Z,4.60
2022-09-03T00:33:27.375Z,5.90
2022-09-03T00:36:45.218Z,5.10
2022-09-03T00:39:33.766Z,4.90
2022-09-03T00:43:16.323Z,4.90
2022-09-03T00:46:51.283Z,4.60
2022-09-03T00:49:48.545Z,5.40
2022-09-03T00:53:00.944Z,5.20
2022-09-03T00:56:25.138Z,4.60
2022-09-03T00:59:35.908Z,4.40
2022-09-03T01:02:58.565Z,4.80
2022-09-03T01:06:13.449Z,5.70
2022-09-03T01:09:09.670Z,5.10
2022-09-03T01:12:03.480Z,5.40
2022-09-03T01:15:06.856Z,5.50
2022-09-03T01:18:21.888Z,4.60
2022-09-03T01:21:28.229Z,3.90
2022-09-03T01:24:35.965Z,5.60
2022-09-03T01:27:50.793Z,4.50
2022-09-03T01:30:49.335Z,4.90
2022-09-03T01:34:25.843Z,3.80
2022-09-03T01:37:39.110Z,5.00
2022-09-03T01:41:36.790Z,4.60
2022-09-03T01:45:14.293Z,5.40
2022-09-03T01:48:12.117Z,5.10
2022-09-03T01:51:19.809Z,4.50
2022-09-03T01:54:38.654Z,4.20
2022-09-03T01:58:06.763Z,4.80
2022-09-03T02:01:07.710Z,6.00
2022-09-03T02:04:00.124Z,5.10
2022-09-03T02:06:49.058Z,4.20
2022-09-03T02:09:36.730Z,5.50
2022-09-03T02:12:25.466Z,4.00
2022-09-03T02:15:19.526Z,4.70
2022-09-03T02:18:17.293Z,4.70
2022-09-03T02:21:05.616Z,4.90
2022-09-03T02:23:54.109Z,5.80
2022-09-03T02:26:41.917Z,6.80
2022-09-03T02:29:31.038Z,5.30
2022-09-03T02:32:19.193Z,4.20
2022-09-03T02:35:08.140Z,4.70
2022-09-03T02:37:56.360Z,5.00
2022-09-03T02:40:45.860Z,5.90
2022-09-03T02:43:45.783Z,5.00
2022-09-03T02:47:03.055Z,5.50
2022-09-03T02:49:52.745Z,5.70
2022-09-03T02:52:40.967Z,5.00
2022-09-03T02:55:30.665Z,4.60
2022-09-03T02:58:18.665Z,5.10
2022-09-03T03:01:06.745Z,5.50
2022-09-03T03:03:54.640Z,5.30
2022-09-03T03:06:42.719Z,4.60
2022-09-03T03:09:35.783Z,4.20
2022-09-03T03:12:23.613Z,6.10
2022-09-03T03:15:11.649Z,4.30
2022-09-03T03:17:59.659Z,6.80
2022-09-03T03:20:50.355Z,3.80
2022-09-03T03:23:39.752Z,4.70
2022-09-03T03:26:27.269Z,3.80
2022-09-03T03:29:20.871Z,6.20
2022-09-03T03:32:09.101Z,3.90
2022-09-03T03:34:57.097Z,4.20
2022-09-03T03:37:45.448Z,4.20
2022-09-03T03:40:35.016Z,7.50
2022-09-03T03:43:23.055Z,3.90
2022-09-03T03:46:12.178Z,4.90
2022-09-03T03:49:01.359Z,4.30
2022-09-03T03:51:49.361Z,5.90
2022-09-03T03:54:37.683Z,3.80
2022-09-03T03:57:26.046Z,4.70
2022-09-03T04:00:15.581Z,5.30
2022-09-03T04:03:04.775Z,6.20
2022-09-03T04:05:59.346Z,5.20
2022-09-03T04:08:49.764Z,5.20
2022-09-03T04:11:37.454Z,5.20
2022-09-03T04:14:27.356Z,5.10
2022-09-03T04:17:15.799Z,5.80
2022-09-03T04:20:04.813Z,5.70
2022-09-03T04:22:52.694Z,5.80
2022-09-03T04:25:42.097Z,6.80
2022-09-03T04:28:30.065Z,5.90
2022-09-03T04:31:21.347Z,5.40
2022-09-03T04:34:09.640Z,5.60
2022-09-03T04:37:00.718Z,5.40
2022-09-03T04:39:48.805Z,5.90
2022-09-03T04:42:36.741Z,7.50
2022-09-03T04:45:24.850Z,5.10
2022-09-03T04:48:13.868Z,9.00
2022-09-03T04:51:07.535Z,8.30
2022-09-03T04:54:00.359Z,5.60
2022-09-03T04:56:48.888Z,6.60
2022-09-03T04:59:37.243Z,5.90
2022-09-03T05:02:25.617Z,7.80
2022-09-03T05:05:13.971Z,6.00
2022-09-03T05:08:02.267Z,6.60
2022-09-03T05:10:50.115Z,5.70
2022-09-03T05:13:43.380Z,6.60
2022-09-03T05:16:31.636Z,6.10
2022-09-03T05:19:19.864Z,6.00
2022-09-03T05:22:08.315Z,6.50
2022-09-03T05:24:58.261Z,6.30
2022-09-03T05:27:47.206Z,6.90
2022-09-03T05:30:36.667Z,6.30
2022-09-03T05:33:25.138Z,7.20
2022-09-03T05:36:17.182Z,7.00
2022-09-03T05:39:09.563Z,6.00
2022-09-03T05:41:57.491Z,6.40
2022-09-03T05:44:45.705Z,5.10
2022-09-03T05:47:33.620Z,7.30
2022-09-03T05:50:21.587Z,6.40
2022-09-03T05:53:09.753Z,6.10
2022-09-03T05:56:00.353Z,6.50
2022-09-03T05:58:52.722Z,6.20
2022-09-03T06:01:50.702Z,7.00
2022-09-03T06:04:40.295Z,5.20
2022-09-03T06:07:28.388Z,6.40
2022-09-03T06:10:20.225Z,5.80
2022-09-03T06:13:10.876Z,5.60
2022-09-03T06:16:08.703Z,5.30
2022-09-03T06:18:57.003Z,6.70
2022-09-03T06:21:48.521Z,5.90
2022-09-03T06:24:37.000Z,6.30
2022-09-03T06:27:26.213Z,5.60
2022-09-03T06:30:17.214Z,5.30
2022-09-03T06:33:04.877Z,5.30
2022-09-03T06:35:58.190Z,5.70
2022-09-03T06:38:47.630Z,5.40
2022-09-03T06:41:36.155Z,6.60
2022-09-03T06:44:24.327Z,6.60
2022-09-03T06:47:12.244Z,6.10
2022-09-03T06:50:02.329Z,5.60
2022-09-03T06:52:57.059Z,5.60
2022-09-03T06:55:53.867Z,6.10
2022-09-03T06:58:45.592Z,8.10
2022-09-03T07:01:34.987Z,6.30
2022-09-03T07:04:25.175Z,6.40
2022-09-03T07:07:14.203Z,7.10
2022-09-03T07:10:02.567Z,6.50
2022-09-03T07:12:50.524Z,7.10
2022-09-03T07:15:38.483Z,8.60
2022-09-03T07:18:26.254Z,6.40
2022-09-03T07:21:27.221Z,5.70
2022-09-03T07:24:15.476Z,6.10
2022-09-03T07:27:09.836Z,6.70
2022-09-03T07:30:00.686Z,7.10
2022-09-03T07:32:51.154Z,6.10
2022-09-03T07:35:39.150Z,6.90
2022-09-03T07:38:27.034Z,6.00
2022-09-03T07:41:26.807Z,6.00
2022-09-03T07:44:19.981Z,5.90
2022-09-03T07:47:10.252Z,5.60
2022-09-03T07:49:58.209Z,7.00
2022-09-03T07:52:46.128Z,5.20
2022-09-03T07:55:34.134Z,6.00
2022-09-03T07:58:24.267Z,4.80
2022-09-03T08:01:18.197Z,6.10
2022-09-03T08:04:09.710Z,4.90
2022-09-03T08:06:59.509Z,5.70
2022-09-03T08:09:51.151Z,6.60
2022-09-03T08:12:39.420Z,5.10
2022-09-03T08:15:27.875Z,6.30
2022-09-03T08:18:15.966Z,4.60
2022-09-03T08:21:16.314Z,4.70
2022-09-03T08:24:04.864Z,4.80
2022-09-03T08:26:52.814Z,5.30
2022-09-03T08:29:40.696Z,5.10
2022-09-03T08:32:31.044Z,5.00
2022-09-03T08:35:22.133Z,5.50
2022-09-03T08:38:11.013Z,5.70
2022-09-03T08:41:17.535Z,4.30
2022-09-03T08:44:33.444Z,4.60
2022-09-03T08:47:46.644Z,4.70
2022-09-03T08:50:56.208Z,4.20
2022-09-03T08:53:56.252Z,5.70
2022-09-03T08:56:44.836Z,5.30
2022-09-03T08:59:33.951Z,4.30
2022-09-03T09:03:01.512Z,5.10
2022-09-03T09:06:17.193Z,4.10
2022-09-03T09:09:39.415Z,4.50
2022-09-03T09:12:44.201Z,5.30
2022-09-03T09:16:40.557Z,4.10
2022-09-03T09:20:16.794Z,3.90
2022-09-03T09:23:09.228Z,3.70
2022-09-03T09:26:01.847Z,4.00
2022-09-03T09:29:09.452Z,3.50
2022-09-03T09:31:58.234Z,3.50
2022-09-03T09:34:51.837Z,3.40
2022-09-03T09:37:51.209Z,3.70
2022-09-03T09:40:45.642Z,3.80
2022-09-03T09:43:34.068Z,4.30
2022-09-03T09:46:31.253Z,4.30
2022-09-03T09:49:36.045Z,3.00
2022-09-03T09:52:30.436Z,4.00
2022-09-03T09:55:20.607Z,4.30
2022-09-03T09:58:14.701Z,3.20
2022-09-03T10:01:13.565Z,3.90
2022-09-03T10:04:24.558Z,5.60
2022-09-03T10:07:33.283Z,4.50
2022-09-03T10:10:22.277Z,4.00
2022-09-03T10:13:31.163Z,5.60
2022-09-03T10:16:36.296Z,4.80
2022-09-03T10:19:40.854Z,3.30
2022-09-03T10:22:35.234Z,6.00
2022-09-03T10:25:29.893Z,3.60
2022-09-03T10:28:18.599Z,2.80
2022-09-03T10:31:37.032Z,3.30
2022-09-03T10:34:59.047Z,3.60
2022-09-03T10:38:00.873Z,3.10
2022-09-03T10:41:09.803Z,4.00
2022-09-03T10:44:19.762Z,4.40
2022-09-03T10:47:19.826Z,4.70
2022-09-03T10:50:59.929Z,3.90
2022-09-03T10:54:36.094Z,3.90
2022-09-03T10:58:11.476Z,4.80
2022-09-03T11:01:22.411Z,5.30
2022-09-03T11:05:01.216Z,6.00
2022-09-03T11:08:03.659Z,4.20
2022-09-03T11:11:00.895Z,5.10
2022-09-03T11:14:00.322Z,4.90
2022-09-03T11:17:03.176Z,5.20
2022-09-03T11:19:58.979Z,4.50
2022-09-03T11:22:49.778Z,6.00
2022-09-03T11:25:54.830Z,6.40
2022-09-03T11:28:57.249Z,3.70
2022-09-03T11:31:58.062Z,3.70
2022-09-03T11:34:52.736Z,4.80
2022-09-03T11:38:00.012Z,3.60
2022-09-03T11:41:27.373Z,4.40
2022-09-03T11:45:16.783Z,5.10
2022-09-03T11:48:48.309Z,5.30
2022-09-03T11:51:42.145Z,5.70
2022-09-03T11:54:33.656Z,3.30
2022-09-03T11:57:30.795Z,4.50
2022-09-03T12:00:21.765Z,3.30
2022-09-03T12:03:16.471Z,4.60
2022-09-03T12:06:49.663Z,4.70
2022-09-03T12:10:19.431Z,5.30
2022-09-03T12:13:40.622Z,3.20
2022-09-03T12:16:56.699Z,3.90
2022-09-03T12:19:56.377Z,3.70
2022-09-03T12:22:44.191Z,3.60
2022-09-03T12:25:32.535Z,3.80
2022-09-03T12:28:26.393Z,4.40
2022-09-03T12:31:24.755Z,3.70
2022-09-03T12:34:20.196Z,4.30
2022-09-03T12:40:32.922Z,4.20
2022-09-03T12:46:34.440Z,5.50
2022-09-03T12:49:30.427Z,3.90
2022-09-03T12:52:33.171Z,4.00
2022-09-03T12:55:54.112Z,4.40
2022-09-03T12:59:02.356Z,3.70
2022-09-03T13:01:58.762Z,3.90
2022-09-03T13:04:47.512Z,3.30
2022-09-03T13:07:39.057Z,4.10
2022-09-03T13:10:39.062Z,3.60
2022-09-03T13:13:36.781Z,4.20
2022-09-03T13:16:46.792Z,2.80
2022-09-03T13:19:51.034Z,3.90
2022-09-03T19:45:26.634Z,12.50
2022-09-03T19:49:18.224Z,12.00
2022-09-03T19:52:40.148Z,11.80
2022-09-03T19:55:55.028Z,11.90
2022-09-03T19:59:29.717Z,13.30
2022-09-03T20:02:36.326Z,11.60
2022-09-03T20:05:43.863Z,11.70
2022-09-03T20:08:52.835Z,10.10
2022-09-03T20:11:41.915Z,12.90
2022-09-03T20:14:33.219Z,11.90
2022-09-03T20:18:19.684Z,11.30
2022-09-03T20:21:23.740Z,11.70
2022-09-03T20:24:34.234Z,12.30
2022-09-03T20:27:58.751Z,12.10
2022-09-03T20:31:25.089Z,11.40
2022-09-03T20:34:35.330Z,11.80
2022-09-03T20:37:30.157Z,11.20
2022-09-03T20:40:40.158Z,10.20
2022-09-03T20:43:59.054Z,9.80
2022-09-03T20:47:05.800Z,9.50
2022-09-03T20:50:22.246Z,9.60
2022-09-03T20:53:23.726Z,9.00
2022-09-03T20:56:35.739Z,8.40
2022-09-03T20:59:36.104Z,11.90
2022-09-03T21:03:20.121Z,9.80
2022-09-03T21:06:39.120Z,8.60
2022-09-03T21:10:05.322Z,9.30
2022-09-03T21:13:47.731Z,10.40
2022-09-03T21:17:00.544Z,9.70
2022-09-03T21:20:16.547Z,10.10
2022-09-03T21:23:21.929Z,9.00
2022-09-03T21:26:27.648Z,9.70
2022-09-03T21:29:32.999Z,14.60
2022-09-03T21:32:29.434Z,9.90
2022-09-03T21:35:43.090Z,9.10
2022-09-03T21:38:38.591Z,12.80
2022-09-03T21:41:49.700Z,10.00
2022-09-03T21:45:07.814Z,11.10
2022-09-03T21:48:18.550Z,11.10
2022-09-03T21:51:22.103Z,11.20
2022-09-03T21:54:19.164Z,11.80
2022-09-03T21:57:40.764Z,13.00
2022-09-03T22:00:32.792Z,10.40
2022-09-03T22:03:21.824Z,8.90
2022-09-03T22:06:25.769Z,12.50
2022-09-03T22:09:33.722Z,12.10
2022-09-03T22:12:40.187Z,10.30
2022-09-03T22:15:29.965Z,11.90
2022-09-03T22:18:28.812Z,9.80
2022-09-03T22:21:37.218Z,8.90
2022-09-03T22:24:48.218Z,9.60
2022-09-03T22:27:50.044Z,8.90
2022-09-03T22:31:13.032Z,8.40
2022-09-03T22:34:46.399Z,8.60
2022-09-03T22:38:01.909Z,7.70
2022-09-03T22:41:16.267Z,6.90
2022-09-03T22:44:22.879Z,6.70
2022-09-03T22:48:02.844Z,7.00
2022-09-03T22:51:00.637Z,6.40
2022-09-03T22:54:05.283Z,5.50
2022-09-03T22:56:56.319Z,5.70
2022-09-03T23:00:09.722Z,6.50
2022-09-03T23:03:07.971Z,6.20
2022-09-03T23:06:13.436Z,5.40
2022-09-03T23:09:36.994Z,6.50
2022-09-03T23:12:46.435Z,6.00
2022-09-03T23:15:38.700Z,5.30
2022-09-03T23:18:32.553Z,5.10
2022-09-03T23:21:41.181Z,5.90
2022-09-03T23:24:50.273Z,5.00
2022-09-03T23:27:53.682Z,5.00
2022-09-03T23:30:41.905Z,5.60
2022-09-03T23:33:29.568Z,5.50
2022-09-03T23:36:50.997Z,5.60
2022-09-03T23:40:16.380Z,5.40
2022-09-03T23:43:14.380Z,7.20
2022-09-03T23:46:19.065Z,5.10
2022-09-03T23:49:27.400Z,5.70
2022-09-03T23:52:20.980Z,5.10
2022-09-03T23:55:41.608Z,5.30
2022-09-03T23:58:44.351Z,5.10
